sensor_id;sensor_type;location;lat;lon;timestamp;temperature;humidity
47336;DHT22;33068;51.990;5.926;2022-09-02T00:02:14;17.20;81.70
47336;DHT22;33068;51.990;5.926;2022-09-02T00:04:42;17.10;81.80
47336;DHT22;33068;51.990;5.926;2022-09-02T00:07:11;17.10;82.00
47336;DHT22;33068;51.990;5.926;2022-09-02T00:09:38;17.10;82.70
47336;DHT22;33068;51.990;5.926;2022-09-02T00:12:07;17.00;82.10
47336;DHT22;33068;51.990;5.926;2022-09-02T00:14:37;16.90;82.30
47336;DHT22;33068;51.990;5.926;2022-09-02T00:17:05;16.90;83.40
47336;DHT22;33068;51.990;5.926;2022-09-02T00:19:32;16.80;82.40
47336;DHT22;33068;51.990;5.926;2022-09-02T00:22:00;16.80;82.90
47336;DHT22;33068;51.990;5.926;2022-09-02T00:24:30;16.80;82.80
47336;DHT22;33068;51.990;5.926;2022-09-02T00:26:58;16.80;82.80
47336;DHT22;33068;51.990;5.926;2022-09-02T00:29:26;16.70;83.20
47336;DHT22;33068;51.990;5.926;2022-09-02T00:31:54;16.70;83.00
47336;DHT22;33068;51.990;5.926;2022-09-02T00:34:21;16.60;83.40
47336;DHT22;33068;51.990;5.926;2022-09-02T00:36:49;16.60;83.40
47336;DHT22;33068;51.990;5.926;2022-09-02T00:39:17;16.50;83.50
47336;DHT22;33068;51.990;5.926;2022-09-02T00:41:45;16.50;83.80
47336;DHT22;33068;51.990;5.926;2022-09-02T00:44:15;16.50;83.80
47336;DHT22;33068;51.990;5.926;2022-09-02T00:46:42;16.40;83.70
47336;DHT22;33068;51.990;5.926;2022-09-02T00:49:13;16.40;84.50
47336;DHT22;33068;51.990;5.926;2022-09-02T00:51:43;16.40;84.00
47336;DHT22;33068;51.990;5.926;2022-09-02T00:54:13;16.30;84.40
47336;DHT22;33068;51.990;5.926;2022-09-02T00:56:43;16.30;84.30
47336;DHT22;33068;51.990;5.926;2022-09-02T00:59:19;16.30;84.50
47336;DHT22;33068;51.990;5.926;2022-09-02T01:01:48;16.20;84.70
47336;DHT22;33068;51.990;5.926;2022-09-02T01:04:15;16.20;84.80
47336;DHT22;33068;51.990;5.926;2022-09-02T01:06:42;16.20;84.30
47336;DHT22;33068;51.990;5.926;2022-09-02T01:09:13;16.20;85.00
47336;DHT22;33068;51.990;5.926;2022-09-02T01:11:43;16.10;84.50
47336;DHT22;33068;51.990;5.926;2022-09-02T01:14:14;16.10;84.90
47336;DHT22;33068;51.990;5.926;2022-09-02T01:16:44;16.10;85.30
47336;DHT22;33068;51.990;5.926;2022-09-02T01:19:19;16.10;85.20
47336;DHT22;33068;51.990;5.926;2022-09-02T01:21:50;16.00;85.80
47336;DHT22;33068;51.990;5.926;2022-09-02T01:24:19;16.00;85.10
47336;DHT22;33068;51.990;5.926;2022-09-02T01:26:46;16.00;85.50
47336;DHT22;33068;51.990;5.926;2022-09-02T01:29:13;16.00;85.10
47336;DHT22;33068;51.990;5.926;2022-09-02T01:31:42;16.00;85.00
47336;DHT22;33068;51.990;5.926;2022-09-02T01:34:09;16.00;85.10
47336;DHT22;33068;51.990;5.926;2022-09-02T01:36:37;16.00;85.30
47336;DHT22;33068;51.990;5.926;2022-09-02T01:39:09;16.00;85.50
47336;DHT22;33068;51.990;5.926;2022-09-02T01:41:36;16.00;85.40
47336;DHT22;33068;51.990;5.926;2022-09-02T01:44:04;16.00;85.70
47336;DHT22;33068;51.990;5.926;2022-09-02T01:46:32;16.00;85.30
47336;DHT22;33068;51.990;5.926;2022-09-02T01:49:00;16.00;85.10
47336;DHT22;33068;51.990;5.926;2022-09-02T01:51:27;16.10;85.10
47336;DHT22;33068;51.990;5.926;2022-09-02T01:53:54;16.10;84.70
47336;DHT22;33068;51.990;5.926;2022-09-02T01:56:23;16.00;85.30
47336;DHT22;33068;51.990;5.926;2022-09-02T01:58:51;16.10;85.00
47336;DHT22;33068;51.990;5.926;2022-09-02T02:01:19;16.10;85.00
47336;DHT22;33068;51.990;5.926;2022-09-02T02:03:47;16.10;85.00
47336;DHT22;33068;51.990;5.926;2022-09-02T02:06:16;16.00;84.60
47336;DHT22;33068;51.990;5.926;2022-09-02T02:08:44;16.10;84.70
47336;DHT22;33068;51.990;5.926;2022-09-02T02:11:11;16.10;84.20
47336;DHT22;33068;51.990;5.926;2022-09-02T02:13:50;16.20;84.50
47336;DHT22;33068;51.990;5.926;2022-09-02T02:16:20;16.10;84.30
47336;DHT22;33068;51.990;5.926;2022-09-02T02:18:47;16.20;84.40
47336;DHT22;33068;51.990;5.926;2022-09-02T02:21:14;16.10;84.40
47336;DHT22;33068;51.990;5.926;2022-09-02T02:23:41;16.10;84.80
47336;DHT22;33068;51.990;5.926;2022-09-02T02:26:08;16.10;84.20
47336;DHT22;33068;51.990;5.926;2022-09-02T02:28:36;16.10;84.80
47336;DHT22;33068;51.990;5.926;2022-09-02T02:31:06;16.10;85.10
47336;DHT22;33068;51.990;5.926;2022-09-02T02:33:35;16.10;84.40
47336;DHT22;33068;51.990;5.926;2022-09-02T02:36:06;16.10;84.50
47336;DHT22;33068;51.990;5.926;2022-09-02T02:38:35;16.10;84.90
47336;DHT22;33068;51.990;5.926;2022-09-02T02:41:03;16.10;84.70
47336;DHT22;33068;51.990;5.926;2022-09-02T02:43:31;16.10;85.20
47336;DHT22;33068;51.990;5.926;2022-09-02T02:45:58;16.10;84.40
47336;DHT22;33068;51.990;5.926;2022-09-02T02:48:27;16.10;84.70
47336;DHT22;33068;51.990;5.926;2022-09-02T02:50:54;16.10;84.80
47336;DHT22;33068;51.990;5.926;2022-09-02T02:53:21;16.10;85.30
47336;DHT22;33068;51.990;5.926;2022-09-02T02:55:49;16.00;84.70
47336;DHT22;33068;51.990;5.926;2022-09-02T02:58:16;16.00;85.10
47336;DHT22;33068;51.990;5.926;2022-09-02T03:00:44;16.00;85.10
47336;DHT22;33068;51.990;5.926;2022-09-02T03:03:12;16.00;85.00
47336;DHT22;33068;51.990;5.926;2022-09-02T03:05:47;16.00;85.00
47336;DHT22;33068;51.990;5.926;2022-09-02T03:08:16;16.00;84.90
47336;DHT22;33068;51.990;5.926;2022-09-02T03:10:46;16.00;85.10
47336;DHT22;33068;51.990;5.926;2022-09-02T03:13:16;16.00;85.10
47336;DHT22;33068;51.990;5.926;2022-09-02T03:15:44;16.20;85.20
47336;DHT22;33068;51.990;5.926;2022-09-02T03:18:11;15.90;85.60
47336;DHT22;33068;51.990;5.926;2022-09-02T03:20:39;15.90;85.30
47336;DHT22;33068;51.990;5.926;2022-09-02T03:23:09;15.90;85.60
47336;DHT22;33068;51.990;5.926;2022-09-02T03:25:41;15.90;85.70
47336;DHT22;33068;51.990;5.926;2022-09-02T03:28:16;15.90;85.50
47336;DHT22;33068;51.990;5.926;2022-09-02T03:30:45;15.90;85.20
47336;DHT22;33068;51.990;5.926;2022-09-02T03:33:14;15.90;85.40
47336;DHT22;33068;51.990;5.926;2022-09-02T03:35:43;15.90;85.60
47336;DHT22;33068;51.990;5.926;2022-09-02T03:38:12;15.90;85.90
47336;DHT22;33068;51.990;5.926;2022-09-02T03:40:39;15.80;85.90
47336;DHT22;33068;51.990;5.926;2022-09-02T03:43:07;15.80;86.40
47336;DHT22;33068;51.990;5.926;2022-09-02T03:45:35;15.80;85.70
47336;DHT22;33068;51.990;5.926;2022-09-02T03:48:05;15.80;85.80
47336;DHT22;33068;51.990;5.926;2022-09-02T03:50:38;15.80;85.70
47336;DHT22;33068;51.990;5.926;2022-09-02T03:53:09;15.80;86.30
47336;DHT22;33068;51.990;5.926;2022-09-02T03:55:39;15.70;85.70
47336;DHT22;33068;51.990;5.926;2022-09-02T03:58:07;15.70;86.00
47336;DHT22;33068;51.990;5.926;2022-09-02T04:00:36;15.70;86.10
47336;DHT22;33068;51.990;5.926;2022-09-02T04:03:04;15.70;86.20
47336;DHT22;33068;51.990;5.926;2022-09-02T04:05:32;15.70;86.50
47336;DHT22;33068;51.990;5.926;2022-09-02T04:08:00;15.70;86.60
47336;DHT22;33068;51.990;5.926;2022-09-02T04:10:28;15.70;86.60
47336;DHT22;33068;51.990;5.926;2022-09-02T04:12:57;15.70;86.60
47336;DHT22;33068;51.990;5.926;2022-09-02T04:15:25;15.70;86.50
47336;DHT22;33068;51.990;5.926;2022-09-02T04:17:53;15.70;86.40
47336;DHT22;33068;51.990;5.926;2022-09-02T04:20:21;15.70;86.40
47336;DHT22;33068;51.990;5.926;2022-09-02T04:22:49;15.60;86.50
47336;DHT22;33068;51.990;5.926;2022-09-02T04:25:17;15.70;86.60
47336;DHT22;33068;51.990;5.926;2022-09-02T04:27:45;15.60;86.60
47336;DHT22;33068;51.990;5.926;2022-09-02T04:30:14;15.70;86.50
47336;DHT22;33068;51.990;5.926;2022-09-02T04:32:42;15.60;86.50
47336;DHT22;33068;51.990;5.926;2022-09-02T04:35:10;15.60;86.50
47336;DHT22;33068;51.990;5.926;2022-09-02T04:37:38;15.60;86.70
47336;DHT22;33068;51.990;5.926;2022-09-02T04:40:07;15.60;87.20
47336;DHT22;33068;51.990;5.926;2022-09-02T04:42:35;15.50;87.00
47336;DHT22;33068;51.990;5.926;2022-09-02T04:45:04;15.50;87.30
47336;DHT22;33068;51.990;5.926;2022-09-02T04:47:34;15.50;86.80
47336;DHT22;33068;51.990;5.926;2022-09-02T04:50:04;15.60;87.00
47336;DHT22;33068;51.990;5.926;2022-09-02T04:52:35;15.60;87.00
47336;DHT22;33068;51.990;5.926;2022-09-02T04:55:03;15.50;87.40
47336;DHT22;33068;51.990;5.926;2022-09-02T04:57:32;15.50;87.40
47336;DHT22;33068;51.990;5.926;2022-09-02T05:00:02;15.40;87.30
47336;DHT22;33068;51.990;5.926;2022-09-02T05:02:29;15.40;87.60
47336;DHT22;33068;51.990;5.926;2022-09-02T05:04:58;15.40;87.80
47336;DHT22;33068;51.990;5.926;2022-09-02T05:07:29;15.40;87.90
47336;DHT22;33068;51.990;5.926;2022-09-02T05:09:57;15.30;88.10
47336;DHT22;33068;51.990;5.926;2022-09-02T05:12:30;15.30;87.90
47336;DHT22;33068;51.990;5.926;2022-09-02T05:14:58;15.30;88.20
47336;DHT22;33068;51.990;5.926;2022-09-02T05:17:28;15.30;88.50
47336;DHT22;33068;51.990;5.926;2022-09-02T05:20:02;15.30;88.70
47336;DHT22;33068;51.990;5.926;2022-09-02T05:22:32;15.30;88.30
47336;DHT22;33068;51.990;5.926;2022-09-02T05:25:00;15.50;88.90
47336;DHT22;33068;51.990;5.926;2022-09-02T05:27:28;15.30;89.10
47336;DHT22;33068;51.990;5.926;2022-09-02T05:29:56;15.20;88.70
47336;DHT22;33068;51.990;5.926;2022-09-02T05:32:25;15.20;88.70
47336;DHT22;33068;51.990;5.926;2022-09-02T05:34:53;15.20;89.00
47336;DHT22;33068;51.990;5.926;2022-09-02T05:37:23;15.20;88.90
47336;DHT22;33068;51.990;5.926;2022-09-02T05:39:51;15.20;88.70
47336;DHT22;33068;51.990;5.926;2022-09-02T05:42:22;15.30;88.80
47336;DHT22;33068;51.990;5.926;2022-09-02T05:44:50;15.30;88.50
47336;DHT22;33068;51.990;5.926;2022-09-02T05:47:20;15.40;88.70
47336;DHT22;33068;51.990;5.926;2022-09-02T05:49:49;15.40;89.00
47336;DHT22;33068;51.990;5.926;2022-09-02T05:52:16;15.50;88.80
47336;DHT22;33068;51.990;5.926;2022-09-02T05:54:48;15.60;88.20
47336;DHT22;33068;51.990;5.926;2022-09-02T05:57:20;15.70;88.00
47336;DHT22;33068;51.990;5.926;2022-09-02T06:00:08;15.80;88.00
47336;DHT22;33068;51.990;5.926;2022-09-02T06:02:42;15.80;88.10
47336;DHT22;33068;51.990;5.926;2022-09-02T06:05:22;15.80;87.50
47336;DHT22;33068;51.990;5.926;2022-09-02T06:08:01;16.00;88.00
47336;DHT22;33068;51.990;5.926;2022-09-02T06:10:31;16.20;86.70
47336;DHT22;33068;51.990;5.926;2022-09-02T06:12:59;16.40;86.30
47336;DHT22;33068;51.990;5.926;2022-09-02T06:15:30;16.50;86.60
47336;DHT22;33068;51.990;5.926;2022-09-02T06:17:59;16.70;86.10
47336;DHT22;33068;51.990;5.926;2022-09-02T06:20:28;16.70;85.50
47336;DHT22;33068;51.990;5.926;2022-09-02T06:22:58;16.70;85.90
47336;DHT22;33068;51.990;5.926;2022-09-02T06:25:25;16.70;85.70
47336;DHT22;33068;51.990;5.926;2022-09-02T06:27:54;16.60;86.00
47336;DHT22;33068;51.990;5.926;2022-09-02T06:30:21;16.50;87.00
47336;DHT22;33068;51.990;5.926;2022-09-02T06:32:48;16.40;86.70
47336;DHT22;33068;51.990;5.926;2022-09-02T06:35:16;16.20;87.70
47336;DHT22;33068;51.990;5.926;2022-09-02T06:37:43;16.20;89.10
47336;DHT22;33068;51.990;5.926;2022-09-02T06:40:10;16.20;87.90
47336;DHT22;33068;51.990;5.926;2022-09-02T06:42:39;16.30;87.60
47336;DHT22;33068;51.990;5.926;2022-09-02T06:45:28;16.40;87.60
47336;DHT22;33068;51.990;5.926;2022-09-02T06:47:58;16.50;87.80
47336;DHT22;33068;51.990;5.926;2022-09-02T06:50:25;16.60;87.00
47336;DHT22;33068;51.990;5.926;2022-09-02T06:52:53;16.60;87.40
47336;DHT22;33068;51.990;5.926;2022-09-02T06:55:22;16.60;87.00
47336;DHT22;33068;51.990;5.926;2022-09-02T06:57:49;16.60;87.70
47336;DHT22;33068;51.990;5.926;2022-09-02T07:00:18;16.70;86.60
47336;DHT22;33068;51.990;5.926;2022-09-02T07:02:48;16.70;88.10
47336;DHT22;33068;51.990;5.926;2022-09-02T07:05:36;16.80;87.80
47336;DHT22;33068;51.990;5.926;2022-09-02T07:08:03;17.00;87.20
47336;DHT22;33068;51.990;5.926;2022-09-02T07:10:31;17.00;86.90
47336;DHT22;33068;51.990;5.926;2022-09-02T07:12:58;17.10;86.60
47336;DHT22;33068;51.990;5.926;2022-09-02T07:15:26;17.20;86.70
47336;DHT22;33068;51.990;5.926;2022-09-02T07:17:54;17.30;87.10
47336;DHT22;33068;51.990;5.926;2022-09-02T07:20:34;17.40;85.90
47336;DHT22;33068;51.990;5.926;2022-09-02T07:23:02;17.50;85.50
47336;DHT22;33068;51.990;5.926;2022-09-02T07:25:32;17.70;85.90
47336;DHT22;33068;51.990;5.926;2022-09-02T07:27:59;17.70;85.00
47336;DHT22;33068;51.990;5.926;2022-09-02T07:30:30;17.90;84.70
47336;DHT22;33068;51.990;5.926;2022-09-02T07:33:05;18.10;85.50
47336;DHT22;33068;51.990;5.926;2022-09-02T07:35:33;18.40;84.40
47336;DHT22;33068;51.990;5.926;2022-09-02T07:38:01;18.40;83.80
47336;DHT22;33068;51.990;5.926;2022-09-02T07:40:31;18.50;84.00
47336;DHT22;33068;51.990;5.926;2022-09-02T07:42:58;18.70;85.10
47336;DHT22;33068;51.990;5.926;2022-09-02T07:45:26;18.90;84.40
47336;DHT22;33068;51.990;5.926;2022-09-02T07:47:54;19.00;83.00
47336;DHT22;33068;51.990;5.926;2022-09-02T07:50:23;19.00;82.50
47336;DHT22;33068;51.990;5.926;2022-09-02T07:52:52;19.00;82.50
47336;DHT22;33068;51.990;5.926;2022-09-02T07:55:21;19.00;83.60
47336;DHT22;33068;51.990;5.926;2022-09-02T07:57:49;19.00;83.10
47336;DHT22;33068;51.990;5.926;2022-09-02T08:00:19;19.00;83.70
47336;DHT22;33068;51.990;5.926;2022-09-02T08:02:50;19.20;83.40
47336;DHT22;33068;51.990;5.926;2022-09-02T08:05:24;19.30;82.70
47336;DHT22;33068;51.990;5.926;2022-09-02T08:07:51;19.40;82.80
47336;DHT22;33068;51.990;5.926;2022-09-02T08:10:18;19.50;82.80
47336;DHT22;33068;51.990;5.926;2022-09-02T08:12:46;19.50;82.80
47336;DHT22;33068;51.990;5.926;2022-09-02T08:15:15;19.50;82.70
47336;DHT22;33068;51.990;5.926;2022-09-02T08:17:45;19.60;82.70
47336;DHT22;33068;51.990;5.926;2022-09-02T08:20:13;19.80;81.80
47336;DHT22;33068;51.990;5.926;2022-09-02T08:22:43;19.90;81.70
47336;DHT22;33068;51.990;5.926;2022-09-02T08:25:10;20.00;81.70
47336;DHT22;33068;51.990;5.926;2022-09-02T08:27:38;20.20;81.20
47336;DHT22;33068;51.990;5.926;2022-09-02T08:30:07;20.20;80.80
47336;DHT22;33068;51.990;5.926;2022-09-02T08:32:35;20.40;80.80
47336;DHT22;33068;51.990;5.926;2022-09-02T08:35:03;20.60;79.90
47336;DHT22;33068;51.990;5.926;2022-09-02T08:37:31;21.10;79.60
47336;DHT22;33068;51.990;5.926;2022-09-02T08:40:01;21.60;78.50
47336;DHT22;33068;51.990;5.926;2022-09-02T08:42:32;22.10;76.90
47336;DHT22;33068;51.990;5.926;2022-09-02T08:45:06;22.50;76.30
47336;DHT22;33068;51.990;5.926;2022-09-02T08:47:36;22.30;75.70
47336;DHT22;33068;51.990;5.926;2022-09-02T08:50:09;22.10;76.30
47336;DHT22;33068;51.990;5.926;2022-09-02T08:52:42;22.10;76.30
47336;DHT22;33068;51.990;5.926;2022-09-02T08:55:17;22.20;76.20
47336;DHT22;33068;51.990;5.926;2022-09-02T08:57:45;22.10;76.20
47336;DHT22;33068;51.990;5.926;2022-09-02T09:00:15;22.00;76.80
47336;DHT22;33068;51.990;5.926;2022-09-02T09:02:50;22.00;77.20
47336;DHT22;33068;51.990;5.926;2022-09-02T09:05:29;22.10;76.70
47336;DHT22;33068;51.990;5.926;2022-09-02T09:08:05;22.20;77.40
47336;DHT22;33068;51.990;5.926;2022-09-02T09:10:41;22.20;77.00
47336;DHT22;33068;51.990;5.926;2022-09-02T09:13:30;22.30;78.10
47336;DHT22;33068;51.990;5.926;2022-09-02T09:16:09;22.40;77.50
47336;DHT22;33068;51.990;5.926;2022-09-02T09:18:40;22.60;76.20
47336;DHT22;33068;51.990;5.926;2022-09-02T09:21:10;22.80;75.90
47336;DHT22;33068;51.990;5.926;2022-09-02T09:23:39;22.70;76.00
47336;DHT22;33068;51.990;5.926;2022-09-02T09:26:10;22.90;76.20
47336;DHT22;33068;51.990;5.926;2022-09-02T09:28:42;23.10;75.50
47336;DHT22;33068;51.990;5.926;2022-09-02T09:31:13;23.00;75.60
47336;DHT22;33068;51.990;5.926;2022-09-02T09:33:54;23.00;75.90
47336;DHT22;33068;51.990;5.926;2022-09-02T09:36:45;23.30;75.40
47336;DHT22;33068;51.990;5.926;2022-09-02T09:39:25;23.30;75.40
47336;DHT22;33068;51.990;5.926;2022-09-02T09:41:55;23.20;75.20
47336;DHT22;33068;51.990;5.926;2022-09-02T09:44:40;23.30;76.00
47336;DHT22;33068;51.990;5.926;2022-09-02T09:47:13;23.60;75.40
47336;DHT22;33068;51.990;5.926;2022-09-02T09:49:41;23.80;74.60
47336;DHT22;33068;51.990;5.926;2022-09-02T09:52:08;24.00;74.10
47336;DHT22;33068;51.990;5.926;2022-09-02T09:54:35;23.90;74.30
47336;DHT22;33068;51.990;5.926;2022-09-02T09:57:20;23.90;74.60
47336;DHT22;33068;51.990;5.926;2022-09-02T09:59:48;24.50;74.40
47336;DHT22;33068;51.990;5.926;2022-09-02T10:02:22;24.70;72.80
47336;DHT22;33068;51.990;5.926;2022-09-02T10:04:51;24.90;73.90
47336;DHT22;33068;51.990;5.926;2022-09-02T10:07:40;25.10;73.20
47336;DHT22;33068;51.990;5.926;2022-09-02T10:10:14;25.40;72.10
47336;DHT22;33068;51.990;5.926;2022-09-02T10:12:44;25.50;72.60
47336;DHT22;33068;51.990;5.926;2022-09-02T10:15:11;25.40;71.10
47336;DHT22;33068;51.990;5.926;2022-09-02T10:17:44;25.40;73.10
47336;DHT22;33068;51.990;5.926;2022-09-02T10:20:17;25.40;72.30
47336;DHT22;33068;51.990;5.926;2022-09-02T10:23:08;25.50;71.90
47336;DHT22;33068;51.990;5.926;2022-09-02T10:25:46;25.50;71.70
47336;DHT22;33068;51.990;5.926;2022-09-02T10:28:28;25.50;72.30
47336;DHT22;33068;51.990;5.926;2022-09-02T10:31:04;25.80;71.20
47336;DHT22;33068;51.990;5.926;2022-09-02T10:33:39;25.60;71.10
47336;DHT22;33068;51.990;5.926;2022-09-02T10:36:16;25.40;72.10
47336;DHT22;33068;51.990;5.926;2022-09-02T10:38:46;25.20;72.70
47336;DHT22;33068;51.990;5.926;2022-09-02T10:41:33;25.20;72.60
47336;DHT22;33068;51.990;5.926;2022-09-02T10:44:28;25.50;74.10
47336;DHT22;33068;51.990;5.926;2022-09-02T10:47:01;25.80;72.40
47336;DHT22;33068;51.990;5.926;2022-09-02T10:49:40;25.80;71.50
47336;DHT22;33068;51.990;5.926;2022-09-02T10:52:20;25.70;71.60
47336;DHT22;33068;51.990;5.926;2022-09-02T10:54:56;25.90;72.50
47336;DHT22;33068;51.990;5.926;2022-09-02T10:57:28;26.10;73.10
47336;DHT22;33068;51.990;5.926;2022-09-02T11:00:03;26.20;72.50
47336;DHT22;33068;51.990;5.926;2022-09-02T11:02:35;26.10;71.70
47336;DHT22;33068;51.990;5.926;2022-09-02T11:05:08;26.00;72.30
47336;DHT22;33068;51.990;5.926;2022-09-02T11:07:43;26.20;72.70
47336;DHT22;33068;51.990;5.926;2022-09-02T11:10:18;26.10;71.70
47336;DHT22;33068;51.990;5.926;2022-09-02T11:12:51;26.10;72.10
47336;DHT22;33068;51.990;5.926;2022-09-02T11:15:31;26.30;71.80
47336;DHT22;33068;51.990;5.926;2022-09-02T11:18:05;26.60;71.80
47336;DHT22;33068;51.990;5.926;2022-09-02T11:20:39;26.80;70.10
47336;DHT22;33068;51.990;5.926;2022-09-02T11:23:16;26.90;70.20
47336;DHT22;33068;51.990;5.926;2022-09-02T11:25:51;27.00;69.70
47336;DHT22;33068;51.990;5.926;2022-09-02T11:28:29;27.00;70.30
47336;DHT22;33068;51.990;5.926;2022-09-02T11:31:04;27.20;70.10
47336;DHT22;33068;51.990;5.926;2022-09-02T11:33:45;27.20;68.10
47336;DHT22;33068;51.990;5.926;2022-09-02T11:36:14;26.90;68.40
47336;DHT22;33068;51.990;5.926;2022-09-02T11:38:46;26.90;68.50
47336;DHT22;33068;51.990;5.926;2022-09-02T11:44:24;26.70;67.30
47336;DHT22;33068;51.990;5.926;2022-09-02T11:47:29;26.60;67.90
47336;DHT22;33068;51.990;5.926;2022-09-02T11:50:15;26.60;67.70
47336;DHT22;33068;51.990;5.926;2022-09-02T11:52:58;26.60;66.00
47336;DHT22;33068;51.990;5.926;2022-09-02T11:55:32;26.70;67.10
47336;DHT22;33068;51.990;5.926;2022-09-02T11:58:00;27.00;67.60
47336;DHT22;33068;51.990;5.926;2022-09-02T12:00:31;27.00;67.90
47336;DHT22;33068;51.990;5.926;2022-09-02T12:03:25;26.90;67.00
47336;DHT22;33068;51.990;5.926;2022-09-02T12:06:10;27.10;66.70
47336;DHT22;33068;51.990;5.926;2022-09-02T12:09:09;27.20;67.00
47336;DHT22;33068;51.990;5.926;2022-09-02T12:11:42;27.50;66.90
47336;DHT22;33068;51.990;5.926;2022-09-02T12:14:59;27.60;66.60
47336;DHT22;33068;51.990;5.926;2022-09-02T12:17:01;27.60;64.60
47336;DHT22;33068;51.990;5.926;2022-09-02T12:19:41;27.70;65.00
47336;DHT22;33068;51.990;5.926;2022-09-02T12:22:33;27.90;64.70
47336;DHT22;33068;51.990;5.926;2022-09-02T12:27:46;27.70;64.20
47336;DHT22;33068;51.990;5.926;2022-09-02T12:33:28;27.50;64.50
47336;DHT22;33068;51.990;5.926;2022-09-02T12:35:57;27.30;65.10
47336;DHT22;33068;51.990;5.926;2022-09-02T12:38:29;27.70;64.60
47336;DHT22;33068;51.990;5.926;2022-09-02T12:44:07;28.30;61.10
47336;DHT22;33068;51.990;5.926;2022-09-02T12:46:48;27.90;63.30
47336;DHT22;33068;51.990;5.926;2022-09-02T12:49:31;27.60;63.50
47336;DHT22;33068;51.990;5.926;2022-09-02T12:52:03;27.20;64.10
47336;DHT22;33068;51.990;5.926;2022-09-02T12:54:39;27.30;64.00
47336;DHT22;33068;51.990;5.926;2022-09-02T12:57:09;27.90;65.00
47336;DHT22;33068;51.990;5.926;2022-09-02T12:59:38;28.50;63.10
47336;DHT22;33068;51.990;5.926;2022-09-02T13:02:31;28.60;61.70
47336;DHT22;33068;51.990;5.926;2022-09-02T13:05:13;27.80;62.20
47336;DHT22;33068;51.990;5.926;2022-09-02T13:08:02;27.80;63.40
47336;DHT22;33068;51.990;5.926;2022-09-02T13:13:57;28.50;62.40
47336;DHT22;33068;51.990;5.926;2022-09-02T13:16:37;28.70;62.40
47336;DHT22;33068;51.990;5.926;2022-09-02T13:19:27;29.00;62.00
47336;DHT22;33068;51.990;5.926;2022-09-02T13:22:22;29.20;61.20
47336;DHT22;33068;51.990;5.926;2022-09-02T13:25:33;28.80;61.70
47336;DHT22;33068;51.990;5.926;2022-09-02T13:28:42;28.00;63.10
47336;DHT22;33068;51.990;5.926;2022-09-02T13:31:18;27.30;64.20
47336;DHT22;33068;51.990;5.926;2022-09-02T13:33:46;27.10;65.30
47336;DHT22;33068;51.990;5.926;2022-09-02T13:36:25;27.00;65.40
47336;DHT22;33068;51.990;5.926;2022-09-02T13:38:52;27.10;64.80
47336;DHT22;33068;51.990;5.926;2022-09-02T13:41:33;26.90;65.40
47336;DHT22;33068;51.990;5.926;2022-09-02T13:44:11;26.80;65.70
47336;DHT22;33068;51.990;5.926;2022-09-02T13:46:46;26.80;65.50
47336;DHT22;33068;51.990;5.926;2022-09-02T13:49:23;26.60;65.30
47336;DHT22;33068;51.990;5.926;2022-09-02T13:51:53;26.70;66.40
47336;DHT22;33068;51.990;5.926;2022-09-02T13:54:30;26.60;65.10
47336;DHT22;33068;51.990;5.926;2022-09-02T13:57:01;26.60;64.00
47336;DHT22;33068;51.990;5.926;2022-09-02T13:59:30;26.60;65.70
47336;DHT22;33068;51.990;5.926;2022-09-02T14:01:56;26.90;65.40
47336;DHT22;33068;51.990;5.926;2022-09-02T14:04:24;26.80;65.00
47336;DHT22;33068;51.990;5.926;2022-09-02T14:06:52;26.60;64.70
47336;DHT22;33068;51.990;5.926;2022-09-02T14:09:23;26.50;65.20
47336;DHT22;33068;51.990;5.926;2022-09-02T14:11:52;26.40;66.80
47336;DHT22;33068;51.990;5.926;2022-09-02T14:14:25;26.30;66.30
47336;DHT22;33068;51.990;5.926;2022-09-02T14:17:17;26.40;67.40
47336;DHT22;33068;51.990;5.926;2022-09-02T14:19:44;26.40;66.00
47336;DHT22;33068;51.990;5.926;2022-09-02T14:22:25;26.30;65.60
47336;DHT22;33068;51.990;5.926;2022-09-02T14:24:52;26.40;66.00
47336;DHT22;33068;51.990;5.926;2022-09-02T14:27:21;26.40;66.40
47336;DHT22;33068;51.990;5.926;2022-09-02T14:29:53;26.40;65.90
47336;DHT22;33068;51.990;5.926;2022-09-02T14:32:23;26.40;64.60
47336;DHT22;33068;51.990;5.926;2022-09-02T14:35:07;26.30;65.00
47336;DHT22;33068;51.990;5.926;2022-09-02T14:37:47;26.40;65.20
47336;DHT22;33068;51.990;5.926;2022-09-02T14:40:14;27.00;65.10
47336;DHT22;33068;51.990;5.926;2022-09-02T14:42:47;27.60;63.80
47336;DHT22;33068;51.990;5.926;2022-09-02T14:45:26;27.60;63.50
47336;DHT22;33068;51.990;5.926;2022-09-02T14:47:54;27.80;62.10
47336;DHT22;33068;51.990;5.926;2022-09-02T14:50:27;28.00;62.70
47336;DHT22;33068;51.990;5.926;2022-09-02T14:53:00;28.10;62.10
47336;DHT22;33068;51.990;5.926;2022-09-02T14:55:45;28.00;63.90
47336;DHT22;33068;51.990;5.926;2022-09-02T14:58:13;28.00;63.00
47336;DHT22;33068;51.990;5.926;2022-09-02T15:00:43;28.20;62.00
47336;DHT22;33068;51.990;5.926;2022-09-02T15:03:13;28.60;62.10
47336;DHT22;33068;51.990;5.926;2022-09-02T15:05:41;28.40;61.40
47336;DHT22;33068;51.990;5.926;2022-09-02T15:08:08;28.30;61.60
47336;DHT22;33068;51.990;5.926;2022-09-02T15:10:35;28.30;60.70
47336;DHT22;33068;51.990;5.926;2022-09-02T15:13:05;28.40;60.60
47336;DHT22;33068;51.990;5.926;2022-09-02T15:15:32;28.20;61.50
47336;DHT22;33068;51.990;5.926;2022-09-02T15:18:01;28.50;61.20
47336;DHT22;33068;51.990;5.926;2022-09-02T15:20:29;28.40;60.40
47336;DHT22;33068;51.990;5.926;2022-09-02T15:22:57;28.60;60.50
47336;DHT22;33068;51.990;5.926;2022-09-02T15:25:24;29.00;60.20
47336;DHT22;33068;51.990;5.926;2022-09-02T15:27:53;29.30;60.20
47336;DHT22;33068;51.990;5.926;2022-09-02T15:30:20;29.20;58.80
47336;DHT22;33068;51.990;5.926;2022-09-02T15:32:47;28.80;59.70
47336;DHT22;33068;51.990;5.926;2022-09-02T15:35:17;28.80;60.60
47336;DHT22;33068;51.990;5.926;2022-09-02T15:37:48;28.70;60.20
47336;DHT22;33068;51.990;5.926;2022-09-02T15:40:17;27.90;61.20
47336;DHT22;33068;51.990;5.926;2022-09-02T15:42:44;27.70;61.50
47336;DHT22;33068;51.990;5.926;2022-09-02T15:45:11;28.00;61.70
47336;DHT22;33068;51.990;5.926;2022-09-02T15:47:40;28.50;60.60
47336;DHT22;33068;51.990;5.926;2022-09-02T15:50:07;28.80;59.30
47336;DHT22;33068;51.990;5.926;2022-09-02T15:52:36;29.00;60.20
47336;DHT22;33068;51.990;5.926;2022-09-02T15:55:04;28.90;59.70
47336;DHT22;33068;51.990;5.926;2022-09-02T15:57:31;28.80;58.70
47336;DHT22;33068;51.990;5.926;2022-09-02T15:59:58;28.70;59.10
47336;DHT22;33068;51.990;5.926;2022-09-02T16:02:25;28.40;59.30
47336;DHT22;33068;51.990;5.926;2022-09-02T16:04:52;27.90;59.80
47336;DHT22;33068;51.990;5.926;2022-09-02T16:07:20;28.00;60.00
47336;DHT22;33068;51.990;5.926;2022-09-02T16:09:49;28.00;59.50
47336;DHT22;33068;51.990;5.926;2022-09-02T16:12:16;28.00;60.10
47336;DHT22;33068;51.990;5.926;2022-09-02T16:14:43;27.90;59.40